Time;durP1;ratioP1;P1;durP2;ratioP2;P2;SDS_P1;SDS_P2;PMS_P1;PMS_P2;Temp;Humidity;BMP_temperature;BMP_pressure;BME280_temperature;BME280_humidity;BME280_pressure;Samples;Min_cycle;Max_cycle;Signal;HPM_P1;HPM_P2
2021/08/25 00:00:58;;;;;;;4.03;1.43;;;;;;;17.21;64.14;100989.75;4992303;28;20943;-66
2021/08/25 00:03:26;;;;;;;3.10;1.77;;;;;;;17.69;64.92;101063.13;4991932;28;20228;-68
2021/08/25 00:05:55;;;;;;;3.00;1.67;;;;;;;17.54;66.87;101045.50;4992660;28;20492;-66
2021/08/25 00:08:23;;;;;;;3.30;1.80;;;;;;;17.55;66.92;101038.22;4992018;28;20364;-68
2021/08/25 00:10:51;;;;;;;3.87;1.70;;;;;;;17.40;67.15;100999.75;4986313;28;20199;-68
2021/08/25 00:13:20;;;;;;;2.57;1.70;;;;;;;17.57;65.90;101012.63;4983903;28;20663;-69
2021/08/25 00:15:48;;;;;;;2.47;1.50;;;;;;;17.59;66.06;101013.34;4982098;28;20560;-69
2021/08/25 00:18:18;;;;;;;4.80;1.80;;;;;;;17.51;67.05;101010.50;4992086;28;20196;-67
2021/08/25 00:20:46;;;;;;;4.00;1.53;;;;;;;17.49;67.37;101012.50;4976012;28;20232;-67
2021/08/25 00:23:14;;;;;;;2.80;1.73;;;;;;;17.20;67.00;100952.72;4992188;28;20212;-67
2021/08/25 00:25:42;;;;;;;3.47;1.47;;;;;;;17.49;67.08;100996.19;4989811;28;20250;-67
2021/08/25 00:28:10;;;;;;;1.97;1.57;;;;;;;17.26;66.78;100949.44;4992036;28;20876;-67
2021/08/25 00:30:39;;;;;;;2.60;1.70;;;;;;;17.59;65.70;100979.91;4985301;28;20205;-68
2021/08/25 00:33:07;;;;;;;2.00;1.60;;;;;;;17.55;65.56;100973.03;4979398;28;20200;-68
2021/08/25 00:35:36;;;;;;;3.77;1.63;;;;;;;17.60;64.78;100970.75;4987453;28;20188;-67
2021/08/25 00:38:04;;;;;;;3.20;1.57;;;;;;;17.43;65.43;100939.72;4993216;28;20262;-67
2021/08/25 00:40:32;;;;;;;2.37;1.60;;;;;;;17.55;66.17;100951.31;4990607;28;20228;-68
2021/08/25 00:43:05;;;;;;;3.97;1.70;;;;;;;17.54;66.36;100939.59;4989225;28;20204;-68
2021/08/25 00:45:34;;;;;;;3.83;1.70;;;;;;;17.62;65.71;100930.72;4989985;28;20211;-68
2021/08/25 00:48:03;;;;;;;3.10;1.43;;;;;;;17.33;65.67;100876.44;4988690;28;20213;-67
2021/08/25 00:50:31;;;;;;;3.93;1.60;;;;;;;17.44;65.78;100894.41;4982775;28;20734;-67
2021/08/25 00:53:02;;;;;;;4.03;1.47;;;;;;;17.62;65.03;100901.69;4989693;28;20254;-67
2021/08/25 00:55:31;;;;;;;4.07;1.87;;;;;;;17.59;65.27;100885.69;4989468;28;20196;-67
2021/08/25 00:58:01;;;;;;;3.33;1.87;;;;;;;17.49;66.08;100871.28;4986109;28;20204;-67
2021/08/25 01:00:29;;;;;;;3.83;1.80;;;;;;;17.59;65.29;100877.53;4991842;28;20592;-67
2021/08/25 01:03:06;;;;;;;2.70;1.43;;;;;;;17.62;64.60;100870.94;4984396;28;20232;-67
2021/08/25 01:05:36;;;;;;;3.43;1.57;;;;;;;17.64;64.95;100872.50;4986541;28;20204;-67
2021/08/25 01:08:08;;;;;;;2.03;1.50;;;;;;;17.62;64.38;100850.06;4991187;28;20603;-67
2021/08/25 01:10:36;;;;;;;6.33;1.60;;;;;;;17.66;64.09;100856.94;4983041;28;20259;-67
2021/08/25 01:13:07;;;;;;;3.70;1.77;;;;;;;17.61;65.28;100852.94;4991084;28;20630;-67
2021/08/25 01:15:37;;;;;;;3.43;1.90;;;;;;;17.68;64.25;100845.94;4990000;28;20199;-66
2021/08/25 01:18:09;;;;;;;2.70;1.73;;;;;;;17.68;64.42;100843.22;4988565;28;20204;-67
2021/08/25 01:20:38;;;;;;;4.57;1.83;;;;;;;17.66;64.37;100840.63;4989441;28;20274;-67
2021/08/25 01:23:07;;;;;;;6.10;2.00;;;;;;;17.12;64.16;100753.59;4988438;28;20200;-67
2021/08/25 01:25:36;;;;;;;3.43;1.83;;;;;;;17.59;65.27;100839.50;4982763;28;20204;-67
2021/08/25 01:28:08;;;;;;;4.53;1.83;;;;;;;17.64;64.00;100825.47;4984660;28;20235;-67
2021/08/25 01:30:38;;;;;;;4.03;1.80;;;;;;;17.69;63.35;100828.63;4989307;28;20587;-67
2021/08/25 01:33:07;;;;;;;3.57;1.47;;;;;;;17.65;63.57;100810.91;4990009;28;20207;-67
2021/08/25 01:35:37;;;;;;;3.77;1.53;;;;;;;17.68;63.72;100800.63;4989429;28;20663;-67
2021/08/25 01:38:07;;;;;;;6.57;1.77;;;;;;;17.67;63.89;100789.91;4989129;28;20206;-67
2021/08/25 01:40:36;;;;;;;4.53;1.50;;;;;;;17.68;63.67;100778.88;4982106;28;20650;-67
2021/08/25 01:43:04;;;;;;;6.00;1.40;;;;;;;17.52;63.85;100756.91;4977553;28;20212;-67
2021/08/25 01:45:33;;;;;;;2.87;1.53;;;;;;;17.59;64.54;100774.31;4989782;28;20199;-67
2021/08/25 01:48:02;;;;;;;2.30;1.40;;;;;;;17.60;64.43;100783.34;4988733;28;20697;-67
2021/08/25 01:50:30;;;;;;;629.00;385.73;;;;;;;17.56;65.05;100773.78;4975410;28;20204;-68
2021/08/25 01:52:58;;;;;;;23.53;14.43;;;;;;;17.60;63.76;100775.19;4988679;28;20212;-68
2021/08/25 01:55:26;;;;;;;3.73;3.37;;;;;;;17.58;65.35;100775.34;4990037;28;20218;-68
2021/08/25 01:57:54;;;;;;;3.13;1.60;;;;;;;17.56;64.67;100773.78;4989501;28;20670;-68
2021/08/25 02:00:22;;;;;;;3.10;1.87;;;;;;;17.65;64.16;100765.56;4983235;28;20188;-68
2021/08/25 02:02:50;;;;;;;2.97;1.87;;;;;;;17.67;63.74;100763.59;4987330;28;20232;-68
2021/08/25 02:05:21;;;;;;;2.97;2.10;;;;;;;17.69;63.23;100767.03;4989298;28;20548;-68
2021/08/25 02:07:49;;;;;;;8.07;2.50;;;;;;;17.75;62.34;100764.72;4989552;28;20701;-68
2021/08/25 02:10:17;;;;;;;3.03;1.97;;;;;;;17.75;63.27;100751.13;4989574;28;20215;-68
2021/08/25 02:12:45;;;;;;;5.67;1.93;;;;;;;17.72;63.44;100735.97;4989611;28;20725;-68
2021/08/25 02:15:13;;;;;;;2.50;2.30;;;;;;;17.77;62.91;100730.13;4988792;28;20204;-68
2021/08/25 02:17:42;;;;;;;3.53;1.57;;;;;;;17.76;63.11;100725.69;4988235;28;20266;-68
2021/08/25 02:20:11;;;;;;;3.30;1.63;;;;;;;17.74;62.95;100705.94;4989312;28;20659;-68
2021/08/25 02:22:40;;;;;;;2.67;1.80;;;;;;;17.67;63.82;100700.28;4988909;28;20220;-68
2021/08/25 02:25:09;;;;;;;4.43;1.67;;;;;;;17.77;62.62;100709.25;4978877;28;20200;-68
2021/08/25 02:27:37;;;;;;;2.13;1.40;;;;;;;17.82;63.41;100709.63;4987120;28;20204;-68
2021/08/25 02:30:07;;;;;;;2.90;1.80;;;;;;;17.73;64.01;100707.81;4989721;28;20209;-68
2021/08/25 02:32:35;;;;;;;2.47;1.70;;;;;;;17.68;63.43;100705.53;4989416;28;20200;-68
2021/08/25 02:35:03;;;;;;;3.27;1.63;;;;;;;17.67;64.28;100706.56;4988915;28;20196;-68
2021/08/25 02:37:31;;;;;;;3.97;1.33;;;;;;;17.68;64.55;100691.97;4979580;28;20196;-68
2021/08/25 02:40:01;;;;;;;1.70;1.53;;;;;;;17.60;63.73;100680.97;4984832;28;20204;-67
2021/08/25 02:42:29;;;;;;;3.20;1.40;;;;;;;17.62;64.31;100681.69;4978649;28;20229;-68
2021/08/25 02:44:57;;;;;;;5.17;1.53;;;;;;;17.59;64.42;100670.25;4983160;28;20207;-68
2021/08/25 02:47:25;;;;;;;2.83;1.40;;;;;;;17.59;64.24;100671.13;4986761;28;20745;-67
2021/08/25 02:49:53;;;;;;;4.00;1.70;;;;;;;17.62;64.07;100667.25;4988944;28;20208;-68
2021/08/25 02:52:21;;;;;;;2.47;1.20;;;;;;;17.47;64.41;100647.91;4989249;28;20226;-68
2021/08/25 02:54:49;;;;;;;8.17;1.50;;;;;;;17.53;65.00;100658.16;4989828;28;20200;-68
2021/08/25 02:57:20;;;;;;;2.13;1.30;;;;;;;17.58;64.01;100649.53;4975074;28;20189;-67
2021/08/25 02:59:48;;;;;;;3.90;1.50;;;;;;;17.62;64.46;100648.22;4989847;28;20211;-68
2021/08/25 03:02:16;;;;;;;3.83;1.60;;;;;;;17.03;65.16;100566.22;4988701;28;20236;-68
2021/08/25 03:04:44;;;;;;;4.37;1.80;;;;;;;17.54;65.28;100646.28;4984917;28;20220;-68
2021/08/25 03:07:12;;;;;;;4.23;1.53;;;;;;;17.49;65.40;100634.16;4991622;28;20196;-68
2021/08/25 03:09:41;;;;;;;4.10;1.50;;;;;;;17.32;64.26;100601.38;4984454;28;20545;-68
2021/08/25 03:12:09;;;;;;;4.53;1.40;;;;;;;17.53;64.66;100639.16;4993457;28;20562;-68
2021/08/25 03:14:38;;;;;;;4.23;1.47;;;;;;;17.57;63.98;100637.81;4992424;28;20204;-69
2021/08/25 03:17:06;;;;;;;6.00;1.80;;;;;;;17.61;63.54;100638.38;4990480;28;20231;-68
2021/08/25 03:19:34;;;;;;;5.07;1.57;;;;;;;17.63;63.52;100629.06;4985098;28;20655;-68
2021/08/25 03:22:03;;;;;;;2.47;1.50;;;;;;;17.65;62.72;100627.06;4989125;28;20213;-68
2021/08/25 03:24:31;;;;;;;2.50;1.40;;;;;;;17.68;61.81;100624.06;4989107;28;20188;-68
2021/08/25 03:26:59;;;;;;;3.37;1.50;;;;;;;17.68;61.35;100615.06;5004251;28;20223;-68
2021/08/25 03:29:27;;;;;;;3.03;1.70;;;;;;;17.65;61.71;100610.75;4987253;28;20200;-68
2021/08/25 03:31:56;;;;;;;2.07;1.40;;;;;;;17.68;61.68;100612.34;4977817;28;20201;-68
2021/08/25 03:34:24;;;;;;;1.77;1.40;;;;;;;17.70;61.11;100604.88;4980228;28;20204;-68
2021/08/25 03:36:53;;;;;;;3.33;1.70;;;;;;;17.67;61.75;100592.47;4992219;28;20200;-68
2021/08/25 03:39:21;;;;;;;2.07;1.30;;;;;;;17.68;61.10;100586.03;4991840;28;20615;-68
2021/08/25 03:41:49;;;;;;;2.23;1.60;;;;;;;17.55;63.09;100571.09;4991762;28;20223;-68
2021/08/25 03:44:17;;;;;;;1.87;1.33;;;;;;;17.54;63.06;100567.53;4991524;28;20262;-68
2021/08/25 03:46:45;;;;;;;3.33;1.40;;;;;;;17.62;61.51;100551.31;4991909;28;20204;-68
2021/08/25 03:49:14;;;;;;;3.70;1.57;;;;;;;17.45;61.68;100518.69;4992192;28;20204;-68
2021/08/25 03:51:42;;;;;;;1.77;1.40;;;;;;;17.45;61.93;100521.41;4982432;28;20200;-68
2021/08/25 03:54:10;;;;;;;2.47;1.33;;;;;;;17.60;61.73;100539.75;4991394;28;20204;-68
2021/08/25 03:56:38;;;;;;;4.60;1.57;;;;;;;17.62;61.07;100554.03;4978227;28;20200;-68
2021/08/25 03:59:06;;;;;;;6.10;1.70;;;;;;;17.61;60.95;100540.59;4991128;28;20204;-68
2021/08/25 04:01:34;;;;;;;4.20;1.40;;;;;;;17.58;61.50;100547.19;4982998;28;20247;-68
2021/08/25 04:04:06;;;;;;;5.20;1.50;;;;;;;17.52;61.95;100528.81;4984298;28;20603;-68
2021/08/25 04:06:36;;;;;;;1.73;1.30;;;;;;;17.56;61.85;100530.22;4991457;28;20196;-68
2021/08/25 04:09:07;;;;;;;3.13;1.30;;;;;;;17.51;62.52;100521.66;4988533;28;20779;-68
2021/08/25 04:11:36;;;;;;;5.20;1.40;;;;;;;17.53;62.24;100532.38;4983662;28;20208;-68
2021/08/25 04:14:04;;;;;;;2.17;1.30;;;;;;;17.56;61.69;100537.50;4983353;28;20201;-68
2021/08/25 04:16:32;;;;;;;3.53;1.50;;;;;;;17.25;62.32;100499.84;4991451;28;20255;-68
2021/08/25 04:19:00;;;;;;;5.57;1.77;;;;;;;17.38;63.81;100537.47;4990261;28;20200;-68
2021/08/25 04:21:28;;;;;;;3.83;1.77;;;;;;;17.36;63.39;100525.91;4982581;28;20212;-68
2021/08/25 04:23:58;;;;;;;4.93;1.70;;;;;;;17.33;63.46;100516.22;4986982;28;20219;-68
2021/08/25 04:26:26;;;;;;;4.77;1.63;;;;;;;17.23;64.57;100518.16;4986320;28;20370;-69
2021/08/25 04:28:54;;;;;;;2.73;1.50;;;;;;;17.22;64.01;100516.44;4986339;28;20270;-69
2021/08/25 04:31:22;;;;;;;4.90;1.70;;;;;;;17.12;65.37;100517.47;4984136;28;20208;-69
2021/08/25 04:33:50;;;;;;;2.57;1.50;;;;;;;17.09;65.02;100507.78;4988400;28;20631;-68
2021/08/25 04:36:18;;;;;;;1.80;1.37;;;;;;;16.78;66.60;100482.81;4986651;28;20674;-68
2021/08/25 04:38:46;;;;;;;9.60;1.77;;;;;;;16.91;66.39;100507.75;4994798;28;20196;-69
2021/08/25 04:41:16;;;;;;;5.47;1.80;;;;;;;16.84;67.64;100513.94;4985852;28;20926;-68
2021/08/25 04:43:44;;;;;;;2.77;1.67;;;;;;;16.78;68.54;100507.22;4986921;28;20274;-68
2021/08/25 04:46:16;;;;;;;6.17;2.17;;;;;;;16.71;69.22;100501.56;4985889;28;20220;-68
2021/08/25 04:48:44;;;;;;;6.83;1.70;;;;;;;16.74;68.26;100503.13;4982394;28;20196;-68
2021/08/25 04:51:13;;;;;;;4.93;1.77;;;;;;;16.76;67.40;100498.41;4982009;28;20208;-68
2021/08/25 04:53:41;;;;;;;5.50;1.80;;;;;;;16.66;67.99;100484.88;4985174;28;20207;-68
2021/08/25 04:56:09;;;;;;;5.90;1.93;;;;;;;16.58;70.05;100479.34;4987209;28;20243;-67
2021/08/25 04:58:39;;;;;;;5.37;2.27;;;;;;;16.64;69.06;100476.03;4980009;28;20209;-68
2021/08/25 05:01:07;;;;;;;4.83;2.07;;;;;;;16.55;70.39;100462.50;4979959;28;21468;-67
2021/08/25 05:03:36;;;;;;;5.47;1.97;;;;;;;16.52;70.92;100462.78;4980951;28;20290;-68
2021/08/25 05:06:08;;;;;;;3.97;2.07;;;;;;;16.46;72.39;100454.25;4981733;28;20287;-67
2021/08/25 05:08:37;;;;;;;3.97;2.03;;;;;;;16.39;72.66;100458.56;4987437;28;20231;-67
2021/08/25 05:11:06;;;;;;;3.03;1.83;;;;;;;16.37;73.30;100452.44;4983088;28;20200;-68
2021/08/25 05:13:34;;;;;;;5.37;2.00;;;;;;;16.30;74.60;100451.34;4983998;28;20200;-68
2021/08/25 05:16:03;;;;;;;4.87;1.97;;;;;;;16.25;74.80;100442.78;4988697;28;20238;-68
2021/08/25 05:18:31;;;;;;;4.30;1.83;;;;;;;16.20;75.41;100442.34;4984714;28;20223;-67
2021/08/25 05:21:00;;;;;;;7.37;2.23;;;;;;;16.32;72.47;100438.47;4969644;28;20625;-68
2021/08/25 05:23:28;;;;;;;5.10;2.30;;;;;;;16.33;73.09;100433.91;4979887;28;20220;-67
2021/08/25 05:25:56;;;;;;;3.20;1.93;;;;;;;16.25;74.61;100437.38;4981068;28;20219;-68
2021/08/25 05:28:24;;;;;;;4.43;2.17;;;;;;;16.31;72.26;100431.34;4987371;28;20656;-68
2021/08/25 05:30:53;;;;;;;5.00;2.30;;;;;;;16.28;74.36;100428.94;4974816;28;20664;-68
2021/08/25 05:33:22;;;;;;;3.30;1.83;;;;;;;16.34;72.84;100422.06;4989839;28;20196;-67
2021/08/25 05:35:50;;;;;;;6.10;2.20;;;;;;;16.32;73.43;100424.94;4989507;28;20200;-68
2021/08/25 05:38:18;;;;;;;5.50;2.03;;;;;;;16.29;73.80;100425.22;4990140;28;20270;-68
2021/08/25 05:40:46;;;;;;;4.03;2.10;;;;;;;16.25;75.05;100422.97;4973108;28;20204;-68
2021/08/25 05:43:15;;;;;;;4.10;1.90;;;;;;;16.31;74.10;100417.81;4979241;28;20745;-67
2021/08/25 05:45:43;;;;;;;4.40;1.40;;;;;;;16.36;74.04;100411.94;4989164;28;20208;-68
2021/08/25 05:48:11;;;;;;;2.37;1.70;;;;;;;16.30;74.59;100421.53;4989946;28;20242;-68
2021/08/25 05:50:41;;;;;;;3.63;1.87;;;;;;;16.27;75.61;100412.84;4976112;28;20288;-68
2021/08/25 05:53:09;;;;;;;4.53;1.83;;;;;;;16.06;75.46;100362.41;4983911;28;20196;-68
2021/08/25 05:55:38;;;;;;;4.73;1.90;;;;;;;16.35;74.37;100394.81;5003488;28;20684;-67
2021/08/25 05:58:06;;;;;;;1999.90;999.30;;;;;;;16.40;74.01;100381.66;4989423;28;20200;-67
2021/08/25 06:00:34;;;;;;;125.07;74.57;;;;;;;16.45;73.38;100371.22;4984901;28;20201;-68
2021/08/25 06:03:03;;;;;;;13.50;8.20;;;;;;;16.45;75.27;100368.50;4980447;28;20318;-68
2021/08/25 06:05:31;;;;;;;9.80;7.03;;;;;;;16.56;74.32;100372.03;4986879;28;20240;-67
2021/08/25 06:08:01;;;;;;;4.00;2.90;;;;;;;16.59;75.46;100372.59;4981077;28;20647;-68
2021/08/25 06:10:29;;;;;;;8.53;4.70;;;;;;;16.65;76.19;100373.81;4984977;28;20211;-68
2021/08/25 06:12:57;;;;;;;5.03;3.87;;;;;;;16.63;77.70;100384.84;4988042;28;20208;-68
2021/08/25 06:15:25;;;;;;;3.57;2.70;;;;;;;16.70;76.91;100374.25;4989236;28;20200;-68
2021/08/25 06:17:53;;;;;;;5.67;3.37;;;;;;;16.78;75.37;100379.75;4988875;28;20247;-68
2021/08/25 06:20:21;;;;;;;8.90;4.90;;;;;;;16.82;75.07;100364.03;4995741;28;20208;-68
2021/08/25 06:22:49;;;;;;;6.53;3.90;;;;;;;16.75;77.41;100350.22;4974835;28;20203;-68
2021/08/25 06:25:19;;;;;;;10.90;6.40;;;;;;;16.73;77.25;100368.53;4988184;28;20315;-68
2021/08/25 06:27:47;;;;;;;5.97;3.60;;;;;;;16.76;75.97;100373.63;4988190;28;20203;-68
2021/08/25 06:30:15;;;;;;;5.40;2.90;;;;;;;16.86;73.66;100363.59;4988217;28;20706;-67
2021/08/25 06:32:43;;;;;;;3.67;2.07;;;;;;;16.83;75.18;100360.31;4981921;28;20196;-68
2021/08/25 06:35:11;;;;;;;3.70;2.03;;;;;;;16.84;76.36;100367.47;4988602;28;20208;-68
2021/08/25 06:37:40;;;;;;;4.10;2.00;;;;;;;16.92;75.24;100362.97;4991954;28;20631;-68
2021/08/25 06:40:10;;;;;;;4.23;2.00;;;;;;;16.89;75.99;100367.84;4993066;28;20266;-67
2021/08/25 06:42:39;;;;;;;3.03;2.00;;;;;;;16.89;76.42;100357.00;4992072;28;20200;-68
2021/08/25 06:45:08;;;;;;;10.30;2.47;;;;;;;16.49;77.24;100303.13;4992280;28;20745;-68
2021/08/25 06:47:36;;;;;;;3.77;2.13;;;;;;;16.88;75.91;100355.31;4992263;28;20193;-68
2021/08/25 06:50:06;;;;;;;4.13;2.13;;;;;;;16.88;77.16;100358.88;4982302;28;20250;-68
2021/08/25 06:52:34;;;;;;;1.90;1.70;;;;;;;16.66;77.72;100324.91;4990265;28;20574;-67
2021/08/25 06:55:02;;;;;;;6.73;2.13;;;;;;;16.93;76.39;100347.53;4975741;28;20212;-67
2021/08/25 06:57:30;;;;;;;2.90;2.10;;;;;;;17.04;75.87;100339.16;5001563;28;20208;-67
2021/08/25 06:59:59;;;;;;;3.83;2.13;;;;;;;17.08;76.57;100345.97;4992249;28;20200;-67
2021/08/25 07:02:28;;;;;;;4.93;2.20;;;;;;;16.70;76.12;100263.06;4992319;28;20623;-67
2021/08/25 07:04:56;;;;;;;6.23;2.13;;;;;;;17.19;75.51;100323.19;4992714;28;20290;-68
2021/08/25 07:07:24;;;;;;;6.57;2.27;;;;;;;17.13;76.12;100321.09;5000395;28;20265;-68
2021/08/25 07:09:52;;;;;;;7.33;2.20;;;;;;;17.08;76.95;100318.84;4991890;28;20710;-67
2021/08/25 07:12:21;;;;;;;2.97;1.90;;;;;;;17.11;77.71;100302.25;4992875;28;20200;-68
2021/08/25 07:14:50;;;;;;;4.80;2.30;;;;;;;17.45;75.42;100318.66;4991858;28;20208;-67
2021/08/25 07:17:20;;;;;;;5.13;2.57;;;;;;;17.58;76.27;100316.38;4991684;28;20618;-67
2021/08/25 07:19:48;;;;;;;5.53;2.20;;;;;;;17.79;74.36;100320.59;4990315;28;20694;-67
2021/08/25 07:22:16;;;;;;;3.00;1.80;;;;;;;17.85;75.68;100307.22;4989542;28;20204;-67
2021/08/25 07:24:44;;;;;;;3.37;2.00;;;;;;;18.00;74.14;100308.31;4991495;28;20271;-67
2021/08/25 07:27:12;;;;;;;6.10;1.97;;;;;;;18.02;74.36;100301.84;4987786;28;20714;-67
2021/08/25 07:29:40;;;;;;;5.03;2.27;;;;;;;18.06;72.32;100287.81;4992369;28;20211;-68
2021/08/25 07:32:09;;;;;;;4.50;2.40;;;;;;;18.11;74.25;100288.16;4980502;28;20614;-67
2021/08/25 07:34:38;;;;;;;3.27;2.30;;;;;;;18.16;73.04;100293.94;4991579;28;20242;-68
2021/08/25 07:37:06;;;;;;;3.77;2.10;;;;;;;18.29;70.44;100290.75;4991118;28;20667;-67
2021/08/25 07:39:34;;;;;;;4.10;2.03;;;;;;;18.10;69.29;100245.69;4991644;28;20206;-67
2021/08/25 07:42:02;;;;;;;3.27;2.20;;;;;;;18.32;69.69;100290.44;4991871;28;20196;-67
2021/08/25 07:44:30;;;;;;;5.73;2.70;;;;;;;18.38;70.89;100286.22;4991152;28;20216;-67
2021/08/25 07:46:58;;;;;;;4.20;2.03;;;;;;;18.42;69.98;100280.28;4991633;28;20695;-68
2021/08/25 07:49:26;;;;;;;7.53;2.77;;;;;;;17.94;70.13;100204.84;4991469;28;20196;-67
2021/08/25 07:51:56;;;;;;;10.47;2.37;;;;;;;18.43;69.01;100279.25;4990838;28;20235;-68
2021/08/25 07:54:24;;;;;;;4.10;2.40;;;;;;;18.03;68.31;100205.72;4991222;28;20258;-68
2021/08/25 07:56:52;;;;;;;6.37;2.50;;;;;;;18.45;70.31;100268.22;4978601;28;20299;-68
2021/08/25 07:59:20;;;;;;;8.67;2.90;;;;;;;18.41;67.56;100264.97;4997147;28;20197;-67
2021/08/25 08:01:48;;;;;;;7.33;2.80;;;;;;;18.40;68.45;100257.00;4977787;28;20204;-68
2021/08/25 08:04:17;;;;;;;5.37;2.60;;;;;;;18.39;69.02;100245.25;4990921;28;20231;-68
2021/08/25 08:06:45;;;;;;;3.73;2.30;;;;;;;18.43;69.10;100248.50;4982580;28;20200;-67
2021/08/25 08:09:15;;;;;;;7.30;2.50;;;;;;;18.46;69.12;100237.28;4991364;28;20307;-67
2021/08/25 08:11:43;;;;;;;6.93;2.30;;;;;;;18.49;69.72;100240.50;4992110;28;20200;-68
2021/08/25 08:14:11;;;;;;;10.70;2.40;;;;;;;18.53;70.63;100241.88;4991272;28;20254;-69
2021/08/25 08:16:44;;;;;;;6.60;2.33;;;;;;;18.60;69.82;100233.88;4985601;28;20220;-68
2021/08/25 08:19:20;;;;;;;8.47;2.50;;;;;;;18.47;70.09;100214.50;4991188;28;20207;-68
2021/08/25 08:21:48;;;;;;;5.53;2.30;;;;;;;18.68;67.92;100233.09;4990968;28;20208;-68
2021/08/25 08:24:18;;;;;;;13.50;2.83;;;;;;;18.68;68.95;100217.63;4981856;28;20721;-68
2021/08/25 08:26:47;;;;;;;9.80;2.77;;;;;;;18.69;68.63;100224.78;4990727;28;20605;-67
2021/08/25 08:29:15;;;;;;;5.37;2.43;;;;;;;18.73;68.67;100217.97;4994721;28;20710;-68
2021/08/25 08:31:43;;;;;;;5.53;2.50;;;;;;;18.76;68.93;100223.06;4991346;28;20196;-66
2021/08/25 08:34:12;;;;;;;7.37;2.83;;;;;;;18.76;70.38;100219.50;4990445;28;20200;-67
2021/08/25 08:36:40;;;;;;;5.27;2.40;;;;;;;18.85;69.04;100208.44;4990890;28;20210;-69
2021/08/25 08:39:08;;;;;;;8.60;2.60;;;;;;;18.95;68.50;100201.97;4991853;28;20666;-67
2021/08/25 08:41:39;;;;;;;9.20;2.33;;;;;;;19.07;66.54;100215.06;4980479;28;20338;-67
2021/08/25 08:44:11;;;;;;;9.47;2.50;;;;;;;19.11;68.14;100213.69;4982001;28;20231;-67
2021/08/25 08:46:40;;;;;;;9.00;2.60;;;;;;;19.15;68.72;100206.03;4989793;28;20258;-67
2021/08/25 08:49:09;;;;;;;5.23;2.27;;;;;;;19.23;68.97;100208.72;4990360;28;20262;-67
2021/08/25 08:51:38;;;;;;;5.80;2.40;;;;;;;19.32;68.18;100206.84;4989920;28;20636;-67
2021/08/25 08:54:07;;;;;;;7.07;2.30;;;;;;;19.40;67.96;100201.38;4990708;28;20227;-67
2021/08/25 08:56:37;;;;;;;6.60;2.30;;;;;;;19.50;65.97;100197.44;4990007;28;20212;-67
2021/08/25 08:59:05;;;;;;;5.67;2.23;;;;;;;19.55;66.28;100196.94;4990660;28;20219;-67
2021/08/25 09:01:35;;;;;;;8.07;2.60;;;;;;;19.57;66.58;100191.31;4977969;28;20706;-67
2021/08/25 09:04:04;;;;;;;7.30;2.20;;;;;;;19.25;66.69;100130.44;4989600;28;20302;-68
2021/08/25 09:06:43;;;;;;;3.40;2.00;;;;;;;19.73;65.46;100191.25;4977353;28;20228;-67
2021/08/25 09:09:12;;;;;;;5.83;2.10;;;;;;;19.83;65.30;100176.38;4990205;28;20196;-67
2021/08/25 09:11:51;;;;;;;7.03;2.40;;;;;;;19.99;66.58;100171.88;4990868;28;20208;-68
2021/08/25 09:14:19;;;;;;;5.63;2.70;;;;;;;20.30;66.87;100166.41;4992562;28;20243;-67
2021/08/25 09:16:47;;;;;;;7.27;2.17;;;;;;;20.64;67.57;100169.59;5005196;28;20204;-68
2021/08/25 09:19:18;;;;;;;4.53;2.00;;;;;;;20.98;68.23;100168.25;4989759;28;20689;-67
2021/08/25 09:21:51;;;;;;;4.43;2.00;;;;;;;21.39;65.12;100157.78;4990174;28;20663;-67
2021/08/25 09:24:23;;;;;;;4.33;2.10;;;;;;;21.57;66.76;100160.13;4989296;28;20239;-68
2021/08/25 09:27:11;;;;;;;3.50;1.90;;;;;;;21.72;63.00;100146.44;4988594;28;20227;-68
2021/08/25 09:29:40;;;;;;;4.17;1.97;;;;;;;21.75;61.60;100155.13;4987948;28;20199;-68
2021/08/25 09:32:19;;;;;;;6.87;1.77;;;;;;;21.64;61.29;100161.91;4979700;28;20676;-68
2021/08/25 09:34:53;;;;;;;5.17;1.90;;;;;;;21.55;59.51;100156.75;4980031;28;20212;-68
2021/08/25 09:37:21;;;;;;;5.40;1.80;;;;;;;21.30;59.66;100154.28;4989451;28;20200;-68
2021/08/25 09:39:52;;;;;;;2.87;1.70;;;;;;;21.11;60.34;100154.81;4979053;28;20211;-67
2021/08/25 09:42:45;;;;;;;4.20;1.80;;;;;;;20.99;60.80;100148.97;4989746;28;20569;-68
2021/08/25 09:45:15;;;;;;;8.07;1.87;;;;;;;20.93;61.79;100154.31;4989595;28;20679;-68
2021/08/25 09:47:50;;;;;;;4.53;1.70;;;;;;;20.65;62.68;100124.03;4989036;28;20227;-68
2021/08/25 09:50:21;;;;;;;2.37;1.73;;;;;;;20.75;62.59;100147.31;4989699;28;20211;-68
2021/08/25 09:52:49;;;;;;;3.93;1.73;;;;;;;20.68;61.99;100132.72;4989525;28;20533;-68
2021/08/25 09:55:30;;;;;;;6.17;2.07;;;;;;;20.63;61.49;100126.09;4988752;28;20203;-67
2021/08/25 09:58:02;;;;;;;5.47;1.90;;;;;;;20.33;61.07;100106.03;4978396;28;20504;-68
2021/08/25 10:00:30;;;;;;;3.73;1.53;;;;;;;20.32;62.51;100107.06;4987087;28;20207;-68
2021/08/25 10:02:59;;;;;;;3.33;2.00;;;;;;;20.65;62.24;100105.78;4989015;28;20331;-68
2021/08/25 10:05:29;;;;;;;2.20;1.70;;;;;;;21.02;61.47;100106.78;4975476;28;20226;-69
2021/08/25 10:07:57;;;;;;;3.47;1.70;;;;;;;21.34;60.82;100095.50;4989806;28;20200;-68
2021/08/25 10:10:25;;;;;;;3.13;1.57;;;;;;;21.53;58.13;100088.63;4988231;28;20351;-68
2021/08/25 10:12:54;;;;;;;4.50;1.70;;;;;;;21.71;57.65;100093.66;4993913;28;20212;-68
2021/08/25 10:15:41;;;;;;;6.10;1.80;;;;;;;21.59;56.30;100092.47;4979091;28;20279;-67
2021/08/25 10:18:24;;;;;;;2.53;1.47;;;;;;;21.03;56.42;100021.09;4993560;28;20207;-67
2021/08/25 10:20:54;;;;;;;2.67;1.20;;;;;;;21.20;57.07;100107.28;4975586;28;20212;-67
2021/08/25 10:24:04;;;;;;;1.57;1.10;;;;;;;20.95;57.72;100105.84;4985259;28;20663;-68
2021/08/25 10:26:33;;;;;;;2.07;1.40;;;;;;;20.68;57.83;100110.88;4974531;28;20246;-68
2021/08/25 10:29:07;;;;;;;1.60;1.07;;;;;;;20.42;57.87;100088.59;4988680;28;20597;-68
2021/08/25 10:32:17;;;;;;;1.17;0.80;;;;;;;20.43;57.24;100112.13;4982019;28;20284;-68
2021/08/25 10:34:45;;;;;;;1.50;0.70;;;;;;;20.34;57.09;100110.47;4991980;28;20713;-68
2021/08/25 10:37:26;;;;;;;0.73;0.73;;;;;;;20.33;57.50;100106.03;4992900;28;20675;-68
2021/08/25 10:40:00;;;;;;;0.63;0.63;;;;;;;20.24;55.95;100098.97;4992691;28;20204;-67
2021/08/25 10:42:48;;;;;;;0.80;0.80;;;;;;;20.23;55.86;100083.63;4992451;28;20211;-67
2021/08/25 10:45:18;;;;;;;0.70;0.70;;;;;;;20.28;56.34;100089.38;4984830;28;20204;-67
2021/08/25 10:47:58;;;;;;;0.70;0.70;;;;;;;20.22;55.93;100021.94;4992738;28;20200;-68
2021/08/25 10:50:51;;;;;;;0.80;0.70;;;;;;;20.74;55.31;100082.00;5000117;28;20667;-67
2021/08/25 10:53:40;;;;;;;0.60;0.60;;;;;;;21.09;54.05;100074.94;4988496;28;20737;-68
2021/08/25 10:56:11;;;;;;;1.87;0.40;;;;;;;21.12;52.21;100088.22;4992314;28;20193;-67
2021/08/25 10:58:47;;;;;;;0.40;0.40;;;;;;;21.14;50.92;100091.66;4992090;28;20203;-67
2021/08/25 11:01:28;;;;;;;0.67;0.60;;;;;;;21.01;49.96;100089.53;4992937;28;20211;-68
2021/08/25 11:04:00;;;;;;;0.30;0.30;;;;;;;20.93;51.23;100092.38;4991953;28;20259;-68
2021/08/25 11:06:36;;;;;;;0.20;0.20;;;;;;;20.71;51.33;100113.22;4990966;28;20278;-68
2021/08/25 11:09:22;;;;;;;0.70;0.50;;;;;;;20.15;51.91;100098.16;4992289;28;20196;-68
2021/08/25 11:11:53;;;;;;;0.30;0.30;;;;;;;19.50;54.26;100093.91;4992954;28;20206;-67
2021/08/25 11:14:27;;;;;;;0.40;0.30;;;;;;;19.58;54.93;100087.59;4992245;28;20218;-67
2021/08/25 11:16:57;;;;;;;0.20;0.20;;;;;;;19.76;55.66;100092.78;4992801;28;20670;-67
2021/08/25 11:19:30;;;;;;;0.20;0.20;;;;;;;19.99;55.53;100104.59;4992544;28;20212;-67
2021/08/25 11:22:01;;;;;;;1.37;0.30;;;;;;;20.41;56.35;100095.09;4990850;28;20275;-67
2021/08/25 11:24:37;;;;;;;0.30;0.30;;;;;;;20.47;53.03;100094.34;4991815;28;20218;-67
2021/08/25 11:27:18;;;;;;;0.10;0.10;;;;;;;20.58;52.93;100098.53;4995936;28;20290;-67
2021/08/25 11:30:10;;;;;;;0.23;0.20;;;;;;;20.63;54.28;100101.56;4990320;28;20615;-67
2021/08/25 11:32:57;;;;;;;0.47;0.37;;;;;;;20.50;54.26;100101.31;4988104;28;20829;-68
2021/08/25 11:35:32;;;;;;;0.77;0.50;;;;;;;20.57;54.18;100094.97;4980149;28;20204;-68
2021/08/25 11:38:02;;;;;;;0.20;0.20;;;;;;;20.70;53.41;100086.97;4992068;28;20261;-68